Buckman Springs (441, 629) Station Data

Red Flag Warning: No
Fire Weather Zone: 258
SDGE Region: Mountain Empire
Lat/Lon: 32.762/-116.489

Observations

Time Wind Speed/Gust Temp(F) RH Fuel Moist Fuel Temp(F) Dewpt(F) Tmax(F) Tmin(F) Accum Precip 10-min Precip SL Press(mb)
5/24 8:30am 101 1 G 2 69° 23% - - 29° 69.6° 48.5° - - -
5/24 8:20am 222 1 G 3 68° 22% - - 28° 68.3° 48.5° - - -
5/24 8:10am 336 2 G 3 67° 23% - - 28° 67.8° 48.5° - - -
5/24 8:00am 332 1 G 3 67° 22% - - 27° 67.4° 48.5° - - -
5/24 7:50am 254 0 G 3 66° 23% - - 27° 67° 48.5° - - -
5/24 7:40am 148 2 G 5 63° 26% - - 28° 65° 48.5° - - -
5/24 7:30am 230 2 G 5 61° 28% - - 28° 63.2° 48.5° - - -
5/24 7:20am 284 3 G 6 58° 31% - - 28° 61.5° 48.5° - - -
5/24 7:10am 147 5 G 10 57° 38% - - 31° 61.5° 48.5° - - -
5/24 7:00am 348 1 G 3 57° 36% - - 30° 61.5° 48.5° - - -
5/24 6:50am 231 2 G 6 54° 40% - - 30° 61.5° 48.5° - - -
5/24 6:40am 249 3 G 6 59° 27% - - 25° 61.5° 48.5° - - -
5/24 6:30am 159 2 G 3 56° 29% - - 24° 59.1° 48.5° - - -
5/24 6:20am 80 1 G 2 54° 33% - - 26° 59.1° 48.5° - - -
5/24 6:10am 3 2 G 4 51° 39% - - 27° 59.1° 48.5° - - -
5/24 6:00am 358 1 G 3 49° 45% - - 29° 59.1° 48.5° - - -
5/24 5:50am 121 1 G 3 49° 45% - - 29° 59.1° 48.5° - - -
5/24 5:40am 155 2 G 4 53° 36% - - 26° 59.1° 49.1° - - -
5/24 5:30am 62 2 G 4 53° 34% - - 25° 59.1° 49.1° - - -
5/24 5:20am 45 2 G 7 54° 33% - - 25° 59.1° 49.1° - - -
5/24 5:10am 23 3 G 5 52° 34% - - 25° 59.1° 49.1° - - -
5/24 5:00am 28 3 G 4 51° 39% - - 27° 59.1° 49.1° - - -
5/24 4:50am 35 2 G 4 50° 41% - - 27° 59.1° 49.1° - - -
5/24 4:40am 11 3 G 4 50° 41% - - 27° 59.1° 49.1° - - -
5/24 4:30am 16 1 G 3 50° 43% - - 28° 59.1° 49.1° - - -
5/24 4:20am 352 1 G 3 50° 44% - - 29° 59.1° 49.1° - - -
5/24 4:10am 84 0 G 2 51° 42% - - 29° 59.1° 49.1° - - -
5/24 4:00am 52 1 G 3 51° 42% - - 28° 59.1° 49.1° - - -
5/24 3:50am 38 1 G 2 50° 44% - - 29° 59.1° 49.1° - - -
5/24 3:40am 14 3 G 4 51° 45% - - 30° 59.1° 49.1° - - -
5/24 3:30am 5 4 G 5 51° 50% - - 33° 59.1° 49.1° - - -
5/24 3:20am 8 1 G 2 49° 54% - - 34° 59.1° 49.1° - - -
5/24 3:10am 178 2 G 4 50° 52% - - 33° 59.1° 49.3° - - -
5/24 3:00am 165 2 G 4 51° 49% - - 33° 59.1° 50.3° - - -
5/24 2:50am 144 1 G 3 53° 42% - - 31° 59.1° 51.6° - - -
5/24 2:40am 132 2 G 3 56° 34% - - 28° 59.1° 52.7° - - -
5/24 2:30am 40 2 G 3 56° 34% - - 28° 59.1° 52.7° - - -
5/24 2:20am 28 2 G 3 54° 37% - - 28° 59.1° 52.7° - - -
5/24 2:10am 3 3 G 5 55° 35% - - 28° 59.1° 52.7° - - -
5/24 2:00am 14 3 G 5 55° 39% - - 31° 59.1° 52.7° - - -
5/24 1:50am 27 2 G 4 53° 47% - - 33° 59.1° 52.7° - - -
5/24 1:40am 118 1 G 3 54° 44% - - 33° 59.1° 52.9° - - -
5/24 1:30am 72 1 G 3 55° 39% - - 31° 59.1° 54.4° - - -
5/24 1:20am 69 1 G 3 55° 38% - - 30° 59.1° 54.8° - - -
5/24 1:10am 64 1 G 2 56° 38% - - 30° 59.1° 55.1° - - -
5/24 1:00am 14 2 G 4 57° 36% - - 30° 59.1° 55.3° - - -
5/24 12:50am 32 2 G 4 56° 39% - - 32° 59.1° 55.3° - - -
5/24 12:40am 26 2 G 4 57° 36% - - 30° 59.1° 56.2° - - -
5/24 12:30am 11 4 G 4 58° 35% - - 31° 59.1° 56.9° - - -
5/24 12:20am 1 2 G 5 59° 41% - - 35° 59.1° 56.9° - - -
5/24 12:10am 90 1 G 2 57° 41% - - 34° 58.1° 56.9° - - -
5/24 12:00am 145 1 G 2 57° 37% - - 31° 92.1° 52.1° - - -
5/23 11:50pm 78 1 G 2 57° 36% - - 30° 92.1° 52.1° - - -
5/23 11:40pm 73 2 G 3 59° 34% - - 30° 92.1° 52.1° - - -
5/23 11:30pm 77 1 G 2 60° 32% - - 30° 92.1° 52.1° - - -
5/23 11:20pm 49 2 G 4 60° 33% - - 31° 92.1° 52.1° - - -
5/23 11:10pm 14 2 G 4 61° 32% - - 31° 92.1° 52.1° - - -
5/23 11:00pm 20 2 G 4 62° 32% - - 32° 92.1° 52.1° - - -
5/23 10:50pm 7 3 G 7 62° 30% - - 31° 92.1° 52.1° - - -
5/23 10:40pm 17 2 G 4 63° 31% - - 32° 92.1° 52.1° - - -
5/23 10:30pm 5 4 G 10 65° 27% - - 31° 92.1° 52.1° - - -
5/23 10:20pm 7 4 G 8 63° 32% - - 33° 92.1° 52.1° - - -
5/23 10:10pm 346 3 G 6 66° 29% - - 33° 92.1° 52.1° - - -
5/23 10:00pm 283 4 G 6 68° 36% - - 40° 92.1° 52.1° - - -
5/23 9:50pm 337 6 G 9 69° 24% - - 31° 92.1° 52.1° - - -
5/23 9:40pm 266 4 G 9 69° 31% - - 37° 92.1° 52.1° - - -
5/23 9:30pm 316 4 G 8 69° 26% - - 33° 92.1° 52.1° - - -
5/23 9:20pm 0 8 G 14 69° 26% - - 33° 92.1° 52.1° - - -
5/23 9:10pm 348 10 G 15 69° 27% - - 34° 92.1° 52.1° - - -
5/23 9:00pm 340 12 G 16 70° 28% - - 36° 92.1° 52.1° - - -
5/23 8:50pm 340 12 G 15 71° 31% - - 39° 92.1° 52.1° - - -
5/23 8:40pm 337 11 G 16 71° 33% - - 41° 92.1° 52.1° - - -
5/23 8:30pm 335 11 G 14 73° 34% - - 43° 92.1° 52.1° - - -
5/23 8:20pm 334 10 G 14 73° 36% - - 44° 92.1° 52.1° - - -
5/23 8:10pm 335 10 G 13 74° 36% - - 45° 92.1° 52.1° - - -
5/23 8:00pm 330 9 G 12 75° 35% - - 45° 92.1° 52.1° - - -
5/23 7:50pm 333 7 G 11 75° 35% - - 45° 92.1° 52.1° - - -
5/23 7:40pm 336 5 G 8 75° 36% - - 46° 92.1° 52.1° - - -
5/23 7:30pm 356 5 G 7 76° 35% - - 46° 92.1° 52.1° - - -
5/23 7:20pm 333 5 G 8 77° 34% - - 46° 92.1° 52.1° - - -
5/23 7:10pm 308 4 G 7 78° 33% - - 46° 92.1° 52.1° - - -
5/23 7:00pm 305 5 G 10 79° 29% - - 44° 92.1° 52.1° - - -
5/23 6:50pm 298 5 G 9 81° 25% - - 41° 92.1° 52.1° - - -
5/23 6:40pm 292 5 G 10 82° 20% - - 37° 92.1° 52.1° - - -
5/23 6:30pm 308 4 G 8 83° 20% - - 37° 92.1° 52.1° - - -
5/23 6:20pm 321 6 G 8 83° 22% - - 41° 92.1° 52.1° - - -
5/23 6:10pm 329 6 G 9 84° 20% - - 39° 92.1° 52.1° - - -
5/23 6:00pm 346 7 G 13 84° 19% - - 37° 92.1° 52.1° - - -
5/23 5:50pm 328 6 G 10 84° 19% - - 38° 92.1° 52.1° - - -
5/23 5:40pm 352 8 G 12 85° 19% - - 38° 92.1° 52.1° - - -
5/23 5:30pm 348 9 G 13 85° 20% - - 39° 92.1° 52.1° - - -
5/23 5:20pm 349 8 G 13 85° 22% - - 42° 92.1° 52.1° - - -
5/23 5:10pm 326 8 G 14 84° 19% - - 38° 92.1° 52.1° - - -
5/23 5:00pm 327 8 G 15 84° 20% - - 38° 92.1° 52.1° - - -
5/23 4:50pm 327 8 G 14 84° 21% - - 40° 92.1° 52.1° - - -
5/23 4:40pm 330 9 G 15 84° 21% - - 40° 92.1° 52.1° - - -
5/23 4:30pm 317 7 G 13 84° 23% - - 42° 92.1° 52.1° - - -
5/23 4:20pm 321 10 G 18 83° 23% - - 42° 92.1° 52.1° - - -
5/23 4:10pm 328 9 G 15 84° 24% - - 43° 92.1° 52.1° - - -
5/23 4:00pm 328 8 G 17 85° 22% - - 42° 92.1° 52.1° - - -
5/23 3:50pm 298 8 G 15 85° 20% - - 40° 92.1° 52.1° - - -
5/23 3:40pm 282 9 G 16 86° 18% - - 37° 92.1° 52.1° - - -
5/23 3:30pm 287 9 G 16 87° 13% - - 31° 92.1° 52.1° - - -
5/23 3:20pm 260 10 G 16 88° 13% - - 30° 92.1° 52.1° - - -
5/23 3:10pm 269 11 G 17 87° 11% - - 26° 92.1° 52.1° - - -
5/23 3:00pm 246 12 G 17 88° 12% - - 28° 92.1° 52.1° - - -
5/23 2:50pm 246 12 G 18 88° 13% - - 31° 92.1° 52.1° - - -
5/23 2:40pm 239 10 G 19 88° 14% - - 33° 92.1° 52.1° - - -
5/23 2:30pm 254 10 G 15 88° 14% - - 34° 92.1° 52.1° - - -
5/23 2:20pm 248 9 G 17 89° 14% - - 34° 92.1° 52.1° - - -
5/23 2:10pm 254 7 G 15 88° 15% - - 35° 92.1° 52.1° - - -
5/23 2:00pm 247 10 G 18 88° 15% - - 35° 92.1° 52.1° - - -
5/23 1:50pm 244 10 G 16 88° 16% - - 36° 92.1° 52.1° - - -
5/23 1:40pm 227 9 G 14 88° 17% - - 38° 92.1° 52.1° - - -
5/23 1:30pm 261 7 G 16 89° 16% - - 38° 92.1° 52.1° - - -
5/23 1:20pm 252 8 G 16 89° 15% - - 36° 92.1° 52.1° - - -
5/23 1:10pm 229 11 G 26 90° 13% - - 34° 92.1° 52.1° - - -
5/23 1:00pm 95 5 G 13 91° 9% - - 23° 92.1° 52.1° - - -
5/23 12:50pm 170 5 G 15 91° 8% - - 23° 92° 52.1° - - -
5/23 12:40pm 176 4 G 11 90° 8% - - 22° 91.5° 52.1° - - -
5/23 12:30pm 163 5 G 11 90° 8% - - 22° 91.2° 52.1° - - -
5/23 12:20pm 186 6 G 13 90° 8% - - 21° 91.2° 52.1° - - -
5/23 12:10pm 70 8 G 23 90° 8% - - 22° 91.2° 52.1° - - -
5/23 12:00pm 72 4 G 12 90° 9% - - 22° 90.6° 52.1° - - -
5/23 11:50am 183 7 G 12 89° 10% - - 24° 90.2° 52.1° - - -
5/23 11:40am 186 7 G 14 89° 10% - - 26° 90.2° 52.1° - - -
5/23 11:30am 202 5 G 12 89° 11% - - 28° 90.2° 52.1° - - -
5/23 11:20am 245 7 G 14 88° 11% - - 27° 89.1° 52.1° - - -
5/23 11:10am 180 5 G 15 89° 11% - - 27° 89.1° 52.1° - - -
5/23 11:00am 190 4 G 11 88° 11% - - 27° 89° 52.1° - - -
5/23 10:50am 185 6 G 13 88° 11% - - 26° 89° 52.1° - - -
5/23 10:40am 191 6 G 11 88° 11% - - 26° 89° 52.1° - - -
5/23 10:30am 202 8 G 12 87° 11% - - 27° 87.8° 52.1° - - -
5/23 10:20am 200 7 G 11 87° 12% - - 28° 87.6° 52.1° - - -
5/23 10:10am 188 7 G 12 87° 12% - - 28° 87.2° 52.1° - - -
5/23 10:00am 193 6 G 10 86° 13% - - 29° 87° 52.1° - - -
5/23 9:50am 200 5 G 8 86° 13% - - 29° 86.2° 52.1° - - -
5/23 9:40am 186 3 G 7 85° 15% - - 33° 85.9° 52.1° - - -
5/23 9:30am 167 2 G 4 84° 18% - - 37° 85° 52.1° - - -
5/23 9:20am 139 2 G 3 83° 19% - - 37° 84.1° 52.1° - - -
5/23 9:10am 159 2 G 3 83° 19% - - 36° 83.2° 52.1° - - -
5/23 9:00am 148 1 G 2 82° 19% - - 37° 83.1° 52.1° - - -
5/23 8:50am 184 0 G 2 81° 22% - - 38° 82° 52.1° - - -
5/23 8:40am 153 1 G 3 79° 21% - - 36° 80.3° 52.1° - - -
5/23 8:30am 163 0 G 1 78° 23% - - 37° 79.2° 52.1° - - -
5/23 8:20am 120 1 G 3 75° 26% - - 38° 77° 52.1° - - -
5/23 8:10am 109 2 G 3 72° 30% - - 39° 72.8° 52.1° - - -
5/23 8:00am 128 0 G 1 72° 30% - - 38° 72.1° 52.1° - - -
5/23 7:50am 91 1 G 2 71° 29% - - 37° 71.9° 52.1° - - -
5/23 7:40am 78 0 G 2 70° 29% - - 36° 69.9° 52.1° - - -
5/23 7:30am 118 1 G 3 69° 29% - - 35° 69.7° 52.1° - - -
5/23 7:20am 45 2 G 3 69° 28% - - 34° 69.6° 52.1° - - -
5/23 7:10am 50 2 G 3 66° 28% - - 33° 67.7° 52.1° - - -
5/23 7:00am 45 2 G 3 63° 32% - - 33° 64.6° 52.1° - - -
5/23 6:50am 40 2 G 4 62° 34% - - 34° 62.8° 52.1° - - -
5/23 6:40am 39 2 G 3 61° 33% - - 32° 62° 52.1° - - -
5/23 6:30am 26 2 G 3 60° 34% - - 31° 62° 52.1° - - -
5/23 6:20am 39 1 G 3 61° 31% - - 30° 62° 52.1° - - -
5/23 6:10am 7 1 G 3 60° 30% - - 29° 62° 52.1° - - -
5/23 6:00am 72 2 G 4 59° 31% - - 29° 62° 52.1° - - -